sensor_id;sensor_type;location;lat;lon;timestamp;P1;durP1;ratioP1;P2;durP2;ratioP2
3280;SDS011;1652;51.31805600;6.20194400;2023-12-20T00:02:16;29.53;;;10.60;;
3280;SDS011;1652;51.31805600;6.20194400;2023-12-20T00:04:44;24.70;;;9.57;;
3280;SDS011;1652;51.31805600;6.20194400;2023-12-20T00:07:11;22.37;;;9.80;;
3280;SDS011;1652;51.31805600;6.20194400;2023-12-20T00:09:38;24.37;;;10.37;;
3280;SDS011;1652;51.31805600;6.20194400;2023-12-20T00:12:05;29.67;;;10.20;;
3280;SDS011;1652;51.31805600;6.20194400;2023-12-20T00:14:32;21.33;;;11.47;;
3280;SDS011;1652;51.31805600;6.20194400;2023-12-20T00:16:59;27.57;;;10.97;;
3280;SDS011;1652;51.31805600;6.20194400;2023-12-20T00:19:26;30.10;;;11.37;;
3280;SDS011;1652;51.31805600;6.20194400;2023-12-20T00:21:53;32.73;;;12.50;;
3280;SDS011;1652;51.31805600;6.20194400;2023-12-20T00:24:20;43.77;;;15.83;;
3280;SDS011;1652;51.31805600;6.20194400;2023-12-20T00:26:47;30.33;;;14.47;;
3280;SDS011;1652;51.31805600;6.20194400;2023-12-20T00:29:14;34.77;;;15.10;;
3280;SDS011;1652;51.31805600;6.20194400;2023-12-20T00:31:41;41.93;;;15.63;;
3280;SDS011;1652;51.31805600;6.20194400;2023-12-20T00:34:08;26.40;;;13.53;;
3280;SDS011;1652;51.31805600;6.20194400;2023-12-20T00:36:35;34.33;;;16.27;;
3280;SDS011;1652;51.31805600;6.20194400;2023-12-20T00:39:03;27.70;;;13.20;;
3280;SDS011;1652;51.31805600;6.20194400;2023-12-20T00:41:31;27.50;;;14.27;;
3280;SDS011;1652;51.31805600;6.20194400;2023-12-20T00:43:58;30.70;;;14.63;;
3280;SDS011;1652;51.31805600;6.20194400;2023-12-20T00:46:24;42.13;;;14.30;;
3280;SDS011;1652;51.31805600;6.20194400;2023-12-20T00:48:51;38.17;;;16.20;;
3280;SDS011;1652;51.31805600;6.20194400;2023-12-20T00:51:18;33.17;;;15.00;;
3280;SDS011;1652;51.31805600;6.20194400;2023-12-20T00:53:45;30.00;;;13.20;;
3280;SDS011;1652;51.31805600;6.20194400;2023-12-20T00:56:15;38.10;;;12.30;;
3280;SDS011;1652;51.31805600;6.20194400;2023-12-20T00:58:43;31.70;;;11.10;;
3280;SDS011;1652;51.31805600;6.20194400;2023-12-20T01:01:10;28.67;;;12.37;;
3280;SDS011;1652;51.31805600;6.20194400;2023-12-20T01:03:37;27.03;;;11.10;;
3280;SDS011;1652;51.31805600;6.20194400;2023-12-20T01:06:04;36.83;;;12.70;;
3280;SDS011;1652;51.31805600;6.20194400;2023-12-20T01:08:31;24.67;;;11.47;;
3280;SDS011;1652;51.31805600;6.20194400;2023-12-20T01:11:03;23.43;;;10.43;;
3280;SDS011;1652;51.31805600;6.20194400;2023-12-20T01:13:30;23.03;;;9.57;;
3280;SDS011;1652;51.31805600;6.20194400;2023-12-20T01:15:57;23.10;;;9.50;;
3280;SDS011;1652;51.31805600;6.20194400;2023-12-20T01:18:24;34.20;;;11.27;;
3280;SDS011;1652;51.31805600;6.20194400;2023-12-20T01:20:51;36.10;;;9.97;;
3280;SDS011;1652;51.31805600;6.20194400;2023-12-20T01:23:18;29.40;;;9.20;;
3280;SDS011;1652;51.31805600;6.20194400;2023-12-20T01:25:45;28.70;;;8.63;;
3280;SDS011;1652;51.31805600;6.20194400;2023-12-20T01:28:12;16.30;;;7.30;;
3280;SDS011;1652;51.31805600;6.20194400;2023-12-20T01:30:39;21.67;;;7.53;;
3280;SDS011;1652;51.31805600;6.20194400;2023-12-20T01:33:06;18.40;;;7.60;;
3280;SDS011;1652;51.31805600;6.20194400;2023-12-20T01:35:33;24.30;;;6.80;;
3280;SDS011;1652;51.31805600;6.20194400;2023-12-20T01:38:00;22.17;;;5.10;;
3280;SDS011;1652;51.31805600;6.20194400;2023-12-20T01:40:27;19.80;;;5.60;;
3280;SDS011;1652;51.31805600;6.20194400;2023-12-20T01:43:00;19.57;;;5.80;;
3280;SDS011;1652;51.31805600;6.20194400;2023-12-20T01:45:29;14.73;;;4.60;;
3280;SDS011;1652;51.31805600;6.20194400;2023-12-20T01:47:57;20.57;;;5.60;;
3280;SDS011;1652;51.31805600;6.20194400;2023-12-20T01:50:25;16.33;;;4.87;;
3280;SDS011;1652;51.31805600;6.20194400;2023-12-20T01:52:52;24.37;;;5.00;;
3280;SDS011;1652;51.31805600;6.20194400;2023-12-20T01:55:24;14.20;;;4.67;;
3280;SDS011;1652;51.31805600;6.20194400;2023-12-20T01:57:53;25.93;;;4.70;;
3280;SDS011;1652;51.31805600;6.20194400;2023-12-20T02:00:20;14.43;;;4.00;;
3280;SDS011;1652;51.31805600;6.20194400;2023-12-20T02:02:50;16.63;;;3.57;;
3280;SDS011;1652;51.31805600;6.20194400;2023-12-20T02:05:19;11.10;;;4.27;;
3280;SDS011;1652;51.31805600;6.20194400;2023-12-20T02:07:46;12.10;;;4.13;;
3280;SDS011;1652;51.31805600;6.20194400;2023-12-20T02:10:14;20.60;;;3.73;;
3280;SDS011;1652;51.31805600;6.20194400;2023-12-20T02:12:42;15.07;;;3.50;;
3280;SDS011;1652;51.31805600;6.20194400;2023-12-20T02:15:08;15.60;;;3.97;;
3280;SDS011;1652;51.31805600;6.20194400;2023-12-20T02:17:36;10.80;;;3.60;;
3280;SDS011;1652;51.31805600;6.20194400;2023-12-20T02:20:06;10.83;;;3.33;;
3280;SDS011;1652;51.31805600;6.20194400;2023-12-20T02:22:33;20.47;;;5.83;;
3280;SDS011;1652;51.31805600;6.20194400;2023-12-20T02:25:00;15.20;;;3.13;;
3280;SDS011;1652;51.31805600;6.20194400;2023-12-20T02:27:27;19.87;;;3.70;;
3280;SDS011;1652;51.31805600;6.20194400;2023-12-20T02:29:56;39.30;;;4.50;;
3280;SDS011;1652;51.31805600;6.20194400;2023-12-20T02:32:23;18.97;;;3.90;;
3280;SDS011;1652;51.31805600;6.20194400;2023-12-20T02:34:52;18.23;;;3.57;;
3280;SDS011;1652;51.31805600;6.20194400;2023-12-20T02:37:20;23.47;;;3.70;;
3280;SDS011;1652;51.31805600;6.20194400;2023-12-20T02:39:47;11.40;;;4.13;;
3280;SDS011;1652;51.31805600;6.20194400;2023-12-20T02:42:14;22.77;;;3.90;;
3280;SDS011;1652;51.31805600;6.20194400;2023-12-20T02:44:41;27.40;;;3.67;;
3280;SDS011;1652;51.31805600;6.20194400;2023-12-20T02:47:07;15.13;;;3.77;;
3280;SDS011;1652;51.31805600;6.20194400;2023-12-20T02:49:34;17.83;;;3.40;;
3280;SDS011;1652;51.31805600;6.20194400;2023-12-20T02:52:01;22.17;;;3.60;;
3280;SDS011;1652;51.31805600;6.20194400;2023-12-20T02:54:28;21.47;;;3.77;;
3280;SDS011;1652;51.31805600;6.20194400;2023-12-20T02:56:55;21.93;;;3.73;;
3280;SDS011;1652;51.31805600;6.20194400;2023-12-20T02:59:22;11.90;;;2.90;;
3280;SDS011;1652;51.31805600;6.20194400;2023-12-20T03:01:49;19.70;;;3.43;;
3280;SDS011;1652;51.31805600;6.20194400;2023-12-20T03:04:16;45.03;;;9.63;;
3280;SDS011;1652;51.31805600;6.20194400;2023-12-20T03:06:44;16.83;;;5.60;;
3280;SDS011;1652;51.31805600;6.20194400;2023-12-20T03:09:11;15.63;;;4.30;;
3280;SDS011;1652;51.31805600;6.20194400;2023-12-20T03:11:37;24.83;;;4.43;;
3280;SDS011;1652;51.31805600;6.20194400;2023-12-20T03:14:04;17.47;;;4.13;;
3280;SDS011;1652;51.31805600;6.20194400;2023-12-20T03:16:31;17.37;;;4.10;;
3280;SDS011;1652;51.31805600;6.20194400;2023-12-20T03:19:02;16.60;;;3.93;;
3280;SDS011;1652;51.31805600;6.20194400;2023-12-20T03:21:29;12.00;;;3.50;;
3280;SDS011;1652;51.31805600;6.20194400;2023-12-20T03:23:56;7.93;;;3.53;;
3280;SDS011;1652;51.31805600;6.20194400;2023-12-20T03:26:23;10.73;;;3.70;;
3280;SDS011;1652;51.31805600;6.20194400;2023-12-20T03:28:50;28.00;;;5.17;;
3280;SDS011;1652;51.31805600;6.20194400;2023-12-20T03:31:17;9.00;;;3.20;;
3280;SDS011;1652;51.31805600;6.20194400;2023-12-20T03:33:44;16.17;;;4.20;;
3280;SDS011;1652;51.31805600;6.20194400;2023-12-20T03:36:11;19.03;;;4.83;;
3280;SDS011;1652;51.31805600;6.20194400;2023-12-20T03:38:38;11.67;;;3.73;;
3280;SDS011;1652;51.31805600;6.20194400;2023-12-20T03:41:05;11.07;;;4.83;;
3280;SDS011;1652;51.31805600;6.20194400;2023-12-20T03:43:33;14.37;;;4.00;;
3280;SDS011;1652;51.31805600;6.20194400;2023-12-20T03:46:00;16.43;;;4.73;;
3280;SDS011;1652;51.31805600;6.20194400;2023-12-20T03:48:27;24.27;;;6.37;;
3280;SDS011;1652;51.31805600;6.20194400;2023-12-20T03:50:54;16.93;;;4.20;;
3280;SDS011;1652;51.31805600;6.20194400;2023-12-20T03:53:20;33.73;;;5.83;;
3280;SDS011;1652;51.31805600;6.20194400;2023-12-20T03:55:47;13.70;;;5.93;;
3280;SDS011;1652;51.31805600;6.20194400;2023-12-20T03:58:14;22.70;;;6.43;;
3280;SDS011;1652;51.31805600;6.20194400;2023-12-20T04:00:41;14.40;;;5.67;;
3280;SDS011;1652;51.31805600;6.20194400;2023-12-20T04:03:08;17.03;;;6.13;;
3280;SDS011;1652;51.31805600;6.20194400;2023-12-20T04:05:35;27.53;;;7.80;;
3280;SDS011;1652;51.31805600;6.20194400;2023-12-20T04:08:02;12.23;;;6.17;;
3280;SDS011;1652;51.31805600;6.20194400;2023-12-20T04:10:30;18.63;;;6.40;;
3280;SDS011;1652;51.31805600;6.20194400;2023-12-20T04:12:57;16.30;;;7.00;;
3280;SDS011;1652;51.31805600;6.20194400;2023-12-20T04:15:24;33.37;;;7.20;;
3280;SDS011;1652;51.31805600;6.20194400;2023-12-20T04:17:51;14.73;;;6.30;;
3280;SDS011;1652;51.31805600;6.20194400;2023-12-20T04:20:18;21.87;;;6.63;;
3280;SDS011;1652;51.31805600;6.20194400;2023-12-20T04:22:45;24.43;;;6.60;;
3280;SDS011;1652;51.31805600;6.20194400;2023-12-20T04:25:12;16.97;;;7.37;;
3280;SDS011;1652;51.31805600;6.20194400;2023-12-20T04:27:39;30.93;;;8.53;;
3280;SDS011;1652;51.31805600;6.20194400;2023-12-20T04:30:07;10.83;;;6.00;;
3280;SDS011;1652;51.31805600;6.20194400;2023-12-20T04:32:35;25.37;;;7.83;;
3280;SDS011;1652;51.31805600;6.20194400;2023-12-20T04:35:02;17.07;;;7.20;;
3280;SDS011;1652;51.31805600;6.20194400;2023-12-20T04:37:29;24.27;;;7.43;;
3280;SDS011;1652;51.31805600;6.20194400;2023-12-20T04:39:56;17.73;;;7.67;;
3280;SDS011;1652;51.31805600;6.20194400;2023-12-20T04:42:23;29.53;;;8.27;;
3280;SDS011;1652;51.31805600;6.20194400;2023-12-20T04:44:50;22.40;;;7.20;;
3280;SDS011;1652;51.31805600;6.20194400;2023-12-20T04:47:17;27.13;;;6.23;;
3280;SDS011;1652;51.31805600;6.20194400;2023-12-20T04:49:44;12.97;;;6.37;;
3280;SDS011;1652;51.31805600;6.20194400;2023-12-20T04:52:11;21.43;;;7.03;;
3280;SDS011;1652;51.31805600;6.20194400;2023-12-20T04:54:38;22.73;;;7.00;;
3280;SDS011;1652;51.31805600;6.20194400;2023-12-20T04:57:08;24.43;;;7.07;;
3280;SDS011;1652;51.31805600;6.20194400;2023-12-20T04:59:35;19.30;;;7.53;;
3280;SDS011;1652;51.31805600;6.20194400;2023-12-20T05:02:02;13.10;;;6.20;;
3280;SDS011;1652;51.31805600;6.20194400;2023-12-20T05:04:29;22.10;;;7.43;;
3280;SDS011;1652;51.31805600;6.20194400;2023-12-20T05:06:56;18.23;;;7.03;;
3280;SDS011;1652;51.31805600;6.20194400;2023-12-20T05:09:23;36.27;;;7.73;;
3280;SDS011;1652;51.31805600;6.20194400;2023-12-20T05:11:50;30.33;;;7.03;;
3280;SDS011;1652;51.31805600;6.20194400;2023-12-20T05:14:17;25.37;;;6.77;;
3280;SDS011;1652;51.31805600;6.20194400;2023-12-20T05:16:44;18.90;;;6.53;;
3280;SDS011;1652;51.31805600;6.20194400;2023-12-20T05:19:11;26.07;;;8.10;;
3280;SDS011;1652;51.31805600;6.20194400;2023-12-20T05:21:38;26.23;;;7.27;;
3280;SDS011;1652;51.31805600;6.20194400;2023-12-20T05:24:05;20.17;;;7.47;;
3280;SDS011;1652;51.31805600;6.20194400;2023-12-20T05:26:32;18.57;;;7.23;;
3280;SDS011;1652;51.31805600;6.20194400;2023-12-20T05:28:59;26.87;;;7.37;;
3280;SDS011;1652;51.31805600;6.20194400;2023-12-20T05:31:25;22.57;;;6.70;;
3280;SDS011;1652;51.31805600;6.20194400;2023-12-20T05:33:52;21.13;;;7.80;;
3280;SDS011;1652;51.31805600;6.20194400;2023-12-20T05:36:20;33.13;;;6.50;;
3280;SDS011;1652;51.31805600;6.20194400;2023-12-20T05:38:46;24.53;;;6.10;;
3280;SDS011;1652;51.31805600;6.20194400;2023-12-20T05:41:13;16.47;;;5.70;;
3280;SDS011;1652;51.31805600;6.20194400;2023-12-20T05:43:40;21.33;;;7.20;;
3280;SDS011;1652;51.31805600;6.20194400;2023-12-20T05:46:07;25.57;;;6.30;;
3280;SDS011;1652;51.31805600;6.20194400;2023-12-20T05:48:37;20.40;;;6.43;;
3280;SDS011;1652;51.31805600;6.20194400;2023-12-20T05:51:04;15.07;;;5.90;;
3280;SDS011;1652;51.31805600;6.20194400;2023-12-20T05:53:31;20.70;;;5.73;;
3280;SDS011;1652;51.31805600;6.20194400;2023-12-20T05:55:58;22.80;;;6.03;;
3280;SDS011;1652;51.31805600;6.20194400;2023-12-20T05:58:26;18.53;;;4.80;;
3280;SDS011;1652;51.31805600;6.20194400;2023-12-20T06:00:53;25.60;;;7.50;;
3280;SDS011;1652;51.31805600;6.20194400;2023-12-20T06:03:20;21.53;;;5.70;;
3280;SDS011;1652;51.31805600;6.20194400;2023-12-20T06:05:46;19.90;;;5.60;;
3280;SDS011;1652;51.31805600;6.20194400;2023-12-20T06:08:13;31.50;;;6.93;;
3280;SDS011;1652;51.31805600;6.20194400;2023-12-20T06:10:40;21.43;;;5.70;;
3280;SDS011;1652;51.31805600;6.20194400;2023-12-20T06:13:07;19.63;;;6.03;;
3280;SDS011;1652;51.31805600;6.20194400;2023-12-20T06:15:34;24.70;;;7.00;;
3280;SDS011;1652;51.31805600;6.20194400;2023-12-20T06:18:01;27.13;;;6.23;;
3280;SDS011;1652;51.31805600;6.20194400;2023-12-20T06:20:29;22.57;;;6.03;;
3280;SDS011;1652;51.31805600;6.20194400;2023-12-20T06:22:56;24.27;;;6.97;;
3280;SDS011;1652;51.31805600;6.20194400;2023-12-20T06:25:23;18.33;;;6.57;;
3280;SDS011;1652;51.31805600;6.20194400;2023-12-20T06:27:50;23.53;;;6.13;;
3280;SDS011;1652;51.31805600;6.20194400;2023-12-20T06:30:17;18.50;;;5.30;;
3280;SDS011;1652;51.31805600;6.20194400;2023-12-20T06:32:44;20.57;;;5.93;;
3280;SDS011;1652;51.31805600;6.20194400;2023-12-20T06:35:13;23.20;;;5.70;;
3280;SDS011;1652;51.31805600;6.20194400;2023-12-20T06:37:40;22.37;;;6.53;;
3280;SDS011;1652;51.31805600;6.20194400;2023-12-20T06:40:09;19.47;;;4.80;;
3280;SDS011;1652;51.31805600;6.20194400;2023-12-20T06:42:43;14.50;;;5.40;;
3280;SDS011;1652;51.31805600;6.20194400;2023-12-20T06:45:24;17.40;;;5.20;;
3280;SDS011;1652;51.31805600;6.20194400;2023-12-20T06:47:51;25.27;;;5.57;;
3280;SDS011;1652;51.31805600;6.20194400;2023-12-20T06:50:18;19.00;;;5.70;;
3280;SDS011;1652;51.31805600;6.20194400;2023-12-20T06:52:45;18.33;;;5.40;;
3280;SDS011;1652;51.31805600;6.20194400;2023-12-20T06:55:12;19.97;;;6.90;;
3280;SDS011;1652;51.31805600;6.20194400;2023-12-20T06:57:38;16.30;;;6.13;;
3280;SDS011;1652;51.31805600;6.20194400;2023-12-20T07:00:06;22.73;;;5.67;;
3280;SDS011;1652;51.31805600;6.20194400;2023-12-20T07:02:33;19.57;;;5.60;;
3280;SDS011;1652;51.31805600;6.20194400;2023-12-20T07:05:00;13.43;;;5.17;;
3280;SDS011;1652;51.31805600;6.20194400;2023-12-20T07:07:27;19.53;;;4.60;;
3280;SDS011;1652;51.31805600;6.20194400;2023-12-20T07:09:54;19.53;;;4.57;;
3280;SDS011;1652;51.31805600;6.20194400;2023-12-20T07:12:21;20.10;;;5.20;;
3280;SDS011;1652;51.31805600;6.20194400;2023-12-20T07:14:48;21.20;;;6.80;;
3280;SDS011;1652;51.31805600;6.20194400;2023-12-20T07:17:15;11.57;;;4.50;;
3280;SDS011;1652;51.31805600;6.20194400;2023-12-20T07:19:42;12.70;;;5.50;;
3280;SDS011;1652;51.31805600;6.20194400;2023-12-20T07:22:09;16.93;;;5.20;;
3280;SDS011;1652;51.31805600;6.20194400;2023-12-20T07:24:36;12.67;;;5.00;;
3280;SDS011;1652;51.31805600;6.20194400;2023-12-20T07:27:03;16.43;;;4.40;;
3280;SDS011;1652;51.31805600;6.20194400;2023-12-20T07:29:30;13.77;;;4.53;;
3280;SDS011;1652;51.31805600;6.20194400;2023-12-20T07:31:57;13.60;;;4.60;;
3280;SDS011;1652;51.31805600;6.20194400;2023-12-20T07:34:24;18.30;;;4.20;;
3280;SDS011;1652;51.31805600;6.20194400;2023-12-20T07:36:51;17.67;;;3.90;;
3280;SDS011;1652;51.31805600;6.20194400;2023-12-20T07:39:18;14.30;;;3.97;;
3280;SDS011;1652;51.31805600;6.20194400;2023-12-20T07:41:45;17.43;;;4.93;;
3280;SDS011;1652;51.31805600;6.20194400;2023-12-20T07:44:12;15.43;;;4.13;;
3280;SDS011;1652;51.31805600;6.20194400;2023-12-20T07:49:10;11.50;;;5.20;;
3280;SDS011;1652;51.31805600;6.20194400;2023-12-20T07:51:37;18.93;;;4.57;;
3280;SDS011;1652;51.31805600;6.20194400;2023-12-20T07:54:04;15.20;;;4.20;;
3280;SDS011;1652;51.31805600;6.20194400;2023-12-20T07:56:31;16.80;;;5.20;;
3280;SDS011;1652;51.31805600;6.20194400;2023-12-20T07:58:58;14.70;;;4.40;;
3280;SDS011;1652;51.31805600;6.20194400;2023-12-20T08:01:26;16.17;;;4.20;;
3280;SDS011;1652;51.31805600;6.20194400;2023-12-20T08:03:53;18.90;;;4.60;;
3280;SDS011;1652;51.31805600;6.20194400;2023-12-20T08:06:21;14.83;;;4.20;;
3280;SDS011;1652;51.31805600;6.20194400;2023-12-20T08:08:48;25.20;;;4.83;;
3280;SDS011;1652;51.31805600;6.20194400;2023-12-20T08:11:26;19.60;;;4.97;;
3280;SDS011;1652;51.31805600;6.20194400;2023-12-20T08:13:53;9.70;;;4.23;;
3280;SDS011;1652;51.31805600;6.20194400;2023-12-20T08:16:20;20.53;;;4.77;;
3280;SDS011;1652;51.31805600;6.20194400;2023-12-20T08:18:47;14.03;;;3.33;;
3280;SDS011;1652;51.31805600;6.20194400;2023-12-20T08:21:14;17.77;;;4.73;;
3280;SDS011;1652;51.31805600;6.20194400;2023-12-20T08:23:41;14.03;;;4.23;;
3280;SDS011;1652;51.31805600;6.20194400;2023-12-20T08:26:08;12.17;;;4.13;;
3280;SDS011;1652;51.31805600;6.20194400;2023-12-20T08:28:36;11.80;;;3.90;;
3280;SDS011;1652;51.31805600;6.20194400;2023-12-20T08:31:03;8.90;;;4.33;;
3280;SDS011;1652;51.31805600;6.20194400;2023-12-20T08:33:30;19.73;;;4.10;;
3280;SDS011;1652;51.31805600;6.20194400;2023-12-20T08:35:57;13.60;;;3.90;;
3280;SDS011;1652;51.31805600;6.20194400;2023-12-20T08:38:24;16.27;;;3.40;;
3280;SDS011;1652;51.31805600;6.20194400;2023-12-20T08:40:51;24.03;;;6.83;;
3280;SDS011;1652;51.31805600;6.20194400;2023-12-20T08:43:18;10.50;;;3.80;;
3280;SDS011;1652;51.31805600;6.20194400;2023-12-20T08:45:45;19.97;;;5.00;;
3280;SDS011;1652;51.31805600;6.20194400;2023-12-20T08:48:12;16.07;;;4.37;;
3280;SDS011;1652;51.31805600;6.20194400;2023-12-20T08:50:39;21.73;;;3.53;;
3280;SDS011;1652;51.31805600;6.20194400;2023-12-20T08:53:06;12.47;;;3.67;;
3280;SDS011;1652;51.31805600;6.20194400;2023-12-20T08:55:33;20.37;;;4.20;;
3280;SDS011;1652;51.31805600;6.20194400;2023-12-20T08:58:00;16.30;;;3.47;;
3280;SDS011;1652;51.31805600;6.20194400;2023-12-20T09:00:27;14.13;;;4.40;;
3280;SDS011;1652;51.31805600;6.20194400;2023-12-20T09:02:54;19.40;;;6.13;;
3280;SDS011;1652;51.31805600;6.20194400;2023-12-20T09:05:21;17.20;;;4.20;;
3280;SDS011;1652;51.31805600;6.20194400;2023-12-20T09:07:49;13.63;;;3.60;;
3280;SDS011;1652;51.31805600;6.20194400;2023-12-20T09:10:16;9.27;;;3.20;;
3280;SDS011;1652;51.31805600;6.20194400;2023-12-20T09:12:49;13.07;;;3.60;;
3280;SDS011;1652;51.31805600;6.20194400;2023-12-20T09:15:24;10.73;;;3.60;;
3280;SDS011;1652;51.31805600;6.20194400;2023-12-20T09:17:52;15.83;;;2.90;;
3280;SDS011;1652;51.31805600;6.20194400;2023-12-20T09:20:19;11.47;;;3.20;;
3280;SDS011;1652;51.31805600;6.20194400;2023-12-20T09:22:46;21.30;;;4.83;;
3280;SDS011;1652;51.31805600;6.20194400;2023-12-20T09:25:13;10.90;;;3.60;;
3280;SDS011;1652;51.31805600;6.20194400;2023-12-20T09:27:42;15.43;;;4.10;;
3280;SDS011;1652;51.31805600;6.20194400;2023-12-20T09:30:09;16.30;;;3.50;;
3280;SDS011;1652;51.31805600;6.20194400;2023-12-20T09:32:36;9.83;;;3.30;;
3280;SDS011;1652;51.31805600;6.20194400;2023-12-20T09:35:04;10.20;;;3.50;;
3280;SDS011;1652;51.31805600;6.20194400;2023-12-20T09:37:32;13.73;;;3.47;;
3280;SDS011;1652;51.31805600;6.20194400;2023-12-20T09:39:59;21.93;;;4.47;;
3280;SDS011;1652;51.31805600;6.20194400;2023-12-20T09:42:33;13.37;;;3.70;;
3280;SDS011;1652;51.31805600;6.20194400;2023-12-20T09:45:02;13.13;;;3.60;;
3280;SDS011;1652;51.31805600;6.20194400;2023-12-20T09:47:33;7.20;;;3.33;;
3280;SDS011;1652;51.31805600;6.20194400;2023-12-20T09:50:00;14.63;;;3.10;;
3280;SDS011;1652;51.31805600;6.20194400;2023-12-20T09:52:28;20.60;;;3.90;;
3280;SDS011;1652;51.31805600;6.20194400;2023-12-20T09:54:56;7.70;;;2.90;;
3280;SDS011;1652;51.31805600;6.20194400;2023-12-20T09:57:24;15.90;;;4.93;;
3280;SDS011;1652;51.31805600;6.20194400;2023-12-20T09:59:50;16.87;;;4.20;;
3280;SDS011;1652;51.31805600;6.20194400;2023-12-20T10:02:17;16.10;;;4.20;;
3280;SDS011;1652;51.31805600;6.20194400;2023-12-20T10:04:49;20.57;;;4.10;;
3280;SDS011;1652;51.31805600;6.20194400;2023-12-20T10:07:16;13.60;;;4.27;;
3280;SDS011;1652;51.31805600;6.20194400;2023-12-20T10:09:44;14.73;;;3.40;;
3280;SDS011;1652;51.31805600;6.20194400;2023-12-20T10:12:11;12.57;;;4.30;;
3280;SDS011;1652;51.31805600;6.20194400;2023-12-20T10:14:38;11.17;;;3.27;;
3280;SDS011;1652;51.31805600;6.20194400;2023-12-20T10:17:06;10.07;;;3.73;;
3280;SDS011;1652;51.31805600;6.20194400;2023-12-20T10:19:33;9.53;;;2.83;;
3280;SDS011;1652;51.31805600;6.20194400;2023-12-20T10:22:00;12.03;;;3.00;;
3280;SDS011;1652;51.31805600;6.20194400;2023-12-20T10:24:28;11.30;;;3.83;;
3280;SDS011;1652;51.31805600;6.20194400;2023-12-20T10:27:02;10.30;;;3.23;;
3280;SDS011;1652;51.31805600;6.20194400;2023-12-20T10:29:36;9.93;;;3.63;;
3280;SDS011;1652;51.31805600;6.20194400;2023-12-20T10:32:23;14.10;;;3.80;;
3280;SDS011;1652;51.31805600;6.20194400;2023-12-20T10:34:54;12.53;;;3.50;;
3280;SDS011;1652;51.31805600;6.20194400;2023-12-20T10:37:23;17.57;;;3.90;;
3280;SDS011;1652;51.31805600;6.20194400;2023-12-20T10:39:50;13.20;;;4.63;;
3280;SDS011;1652;51.31805600;6.20194400;2023-12-20T10:42:22;10.70;;;3.10;;
3280;SDS011;1652;51.31805600;6.20194400;2023-12-20T10:44:51;19.03;;;6.47;;
3280;SDS011;1652;51.31805600;6.20194400;2023-12-20T10:47:20;14.20;;;3.23;;
3280;SDS011;1652;51.31805600;6.20194400;2023-12-20T10:49:47;10.97;;;3.47;;
3280;SDS011;1652;51.31805600;6.20194400;2023-12-20T10:52:14;11.20;;;3.87;;
3280;SDS011;1652;51.31805600;6.20194400;2023-12-20T10:54:44;8.43;;;3.30;;
3280;SDS011;1652;51.31805600;6.20194400;2023-12-20T10:57:11;12.83;;;3.60;;
3280;SDS011;1652;51.31805600;6.20194400;2023-12-20T10:59:38;15.00;;;3.67;;
3280;SDS011;1652;51.31805600;6.20194400;2023-12-20T11:02:07;15.40;;;4.07;;
3280;SDS011;1652;51.31805600;6.20194400;2023-12-20T11:07:40;10.20;;;3.03;;
3280;SDS011;1652;51.31805600;6.20194400;2023-12-20T11:10:15;13.47;;;5.27;;
3280;SDS011;1652;51.31805600;6.20194400;2023-12-20T11:12:52;18.37;;;4.80;;
3280;SDS011;1652;51.31805600;6.20194400;2023-12-20T11:15:38;12.93;;;3.33;;
3280;SDS011;1652;51.31805600;6.20194400;2023-12-20T11:18:05;11.63;;;3.27;;
3280;SDS011;1652;51.31805600;6.20194400;2023-12-20T11:20:36;9.23;;;3.17;;
3280;SDS011;1652;51.31805600;6.20194400;2023-12-20T11:23:10;10.40;;;3.00;;
3280;SDS011;1652;51.31805600;6.20194400;2023-12-20T11:25:47;10.00;;;3.47;;
3280;SDS011;1652;51.31805600;6.20194400;2023-12-20T11:28:21;15.73;;;3.57;;
3280;SDS011;1652;51.31805600;6.20194400;2023-12-20T11:30:51;10.17;;;3.50;;
3280;SDS011;1652;51.31805600;6.20194400;2023-12-20T11:33:23;13.73;;;4.20;;
3280;SDS011;1652;51.31805600;6.20194400;2023-12-20T11:35:55;11.03;;;4.63;;
3280;SDS011;1652;51.31805600;6.20194400;2023-12-20T11:38:23;12.47;;;4.57;;
3280;SDS011;1652;51.31805600;6.20194400;2023-12-20T11:40:51;14.67;;;5.23;;
3280;SDS011;1652;51.31805600;6.20194400;2023-12-20T11:43:30;21.73;;;4.10;;
3280;SDS011;1652;51.31805600;6.20194400;2023-12-20T11:46:05;16.27;;;3.50;;
3280;SDS011;1652;51.31805600;6.20194400;2023-12-20T11:48:37;13.67;;;3.73;;
3280;SDS011;1652;51.31805600;6.20194400;2023-12-20T11:51:11;11.07;;;3.03;;
3280;SDS011;1652;51.31805600;6.20194400;2023-12-20T11:53:41;12.13;;;3.20;;
3280;SDS011;1652;51.31805600;6.20194400;2023-12-20T11:56:10;12.03;;;5.53;;
3280;SDS011;1652;51.31805600;6.20194400;2023-12-20T11:58:38;10.50;;;3.70;;
3280;SDS011;1652;51.31805600;6.20194400;2023-12-20T12:01:06;16.60;;;4.07;;
3280;SDS011;1652;51.31805600;6.20194400;2023-12-20T12:03:35;7.63;;;3.60;;
3280;SDS011;1652;51.31805600;6.20194400;2023-12-20T12:06:02;11.13;;;3.57;;
3280;SDS011;1652;51.31805600;6.20194400;2023-12-20T12:08:31;24.27;;;7.30;;
3280;SDS011;1652;51.31805600;6.20194400;2023-12-20T12:10:58;12.27;;;3.40;;
3280;SDS011;1652;51.31805600;6.20194400;2023-12-20T12:13:25;12.37;;;3.50;;
3280;SDS011;1652;51.31805600;6.20194400;2023-12-20T12:15:54;14.83;;;4.00;;
3280;SDS011;1652;51.31805600;6.20194400;2023-12-20T12:18:21;9.00;;;3.33;;
3280;SDS011;1652;51.31805600;6.20194400;2023-12-20T12:20:48;12.93;;;4.53;;
3280;SDS011;1652;51.31805600;6.20194400;2023-12-20T12:23:22;15.13;;;4.13;;
3280;SDS011;1652;51.31805600;6.20194400;2023-12-20T12:25:50;12.00;;;4.23;;
3280;SDS011;1652;51.31805600;6.20194400;2023-12-20T12:28:18;10.90;;;3.50;;
3280;SDS011;1652;51.31805600;6.20194400;2023-12-20T12:30:58;14.63;;;3.57;;
3280;SDS011;1652;51.31805600;6.20194400;2023-12-20T12:33:26;12.83;;;6.40;;
3280;SDS011;1652;51.31805600;6.20194400;2023-12-20T12:35:53;9.07;;;3.60;;
3280;SDS011;1652;51.31805600;6.20194400;2023-12-20T12:38:21;11.60;;;4.43;;
3280;SDS011;1652;51.31805600;6.20194400;2023-12-20T12:40:49;18.40;;;5.07;;
3280;SDS011;1652;51.31805600;6.20194400;2023-12-20T12:43:16;20.53;;;4.90;;
3280;SDS011;1652;51.31805600;6.20194400;2023-12-20T12:45:43;39.57;;;21.40;;
3280;SDS011;1652;51.31805600;6.20194400;2023-12-20T12:48:10;15.63;;;5.73;;
3280;SDS011;1652;51.31805600;6.20194400;2023-12-20T12:50:37;14.00;;;4.40;;
3280;SDS011;1652;51.31805600;6.20194400;2023-12-20T12:53:04;16.30;;;4.13;;
3280;SDS011;1652;51.31805600;6.20194400;2023-12-20T12:55:31;10.23;;;4.80;;
3280;SDS011;1652;51.31805600;6.20194400;2023-12-20T12:57:59;9.90;;;4.43;;
3280;SDS011;1652;51.31805600;6.20194400;2023-12-20T13:00:26;8.63;;;4.20;;
3280;SDS011;1652;51.31805600;6.20194400;2023-12-20T13:02:53;18.17;;;5.10;;
3280;SDS011;1652;51.31805600;6.20194400;2023-12-20T13:05:20;18.20;;;6.23;;
3280;SDS011;1652;51.31805600;6.20194400;2023-12-20T13:07:47;22.53;;;6.80;;
3280;SDS011;1652;51.31805600;6.20194400;2023-12-20T13:10:14;33.53;;;5.20;;